sensor_id;sensor_type;location;lat;lon;timestamp;pressure;altitude;pressure_sealevel;temperature;humidity
42633;BME280;28261;53.304;-6.284;2023-03-25T00:01:16;98857.63;;;7.37;100.00
42633;BME280;28261;53.304;-6.284;2023-03-25T00:03:21;98863.88;;;7.36;100.00
42633;BME280;28261;53.304;-6.284;2023-03-25T00:05:25;98863.13;;;7.34;100.00
42633;BME280;28261;53.304;-6.284;2023-03-25T00:07:29;98865.09;;;7.32;100.00
42633;BME280;28261;53.304;-6.284;2023-03-25T00:09:32;98877.53;;;7.29;100.00
42633;BME280;28261;53.304;-6.284;2023-03-25T00:11:36;98881.16;;;7.28;100.00
42633;BME280;28261;53.304;-6.284;2023-03-25T00:13:40;98873.34;;;7.27;100.00
42633;BME280;28261;53.304;-6.284;2023-03-25T00:15:44;98881.25;;;7.27;100.00
42633;BME280;28261;53.304;-6.284;2023-03-25T00:17:48;98885.59;;;7.28;100.00
42633;BME280;28261;53.304;-6.284;2023-03-25T00:19:52;98888.09;;;7.29;100.00
42633;BME280;28261;53.304;-6.284;2023-03-25T00:21:56;98895.03;;;7.31;100.00
42633;BME280;28261;53.304;-6.284;2023-03-25T00:23:59;98900.91;;;7.34;100.00
42633;BME280;28261;53.304;-6.284;2023-03-25T00:26:03;98894.53;;;7.37;100.00
42633;BME280;28261;53.304;-6.284;2023-03-25T00:28:07;98897.03;;;7.38;100.00
42633;BME280;28261;53.304;-6.284;2023-03-25T00:30:12;98894.16;;;7.41;100.00
42633;BME280;28261;53.304;-6.284;2023-03-25T00:32:17;98900.97;;;7.44;100.00
42633;BME280;28261;53.304;-6.284;2023-03-25T00:34:22;98907.06;;;7.44;100.00
42633;BME280;28261;53.304;-6.284;2023-03-25T00:36:26;98898.19;;;7.45;100.00
42633;BME280;28261;53.304;-6.284;2023-03-25T00:38:31;98914.84;;;7.46;100.00
42633;BME280;28261;53.304;-6.284;2023-03-25T00:40:36;98908.63;;;7.47;100.00
42633;BME280;28261;53.304;-6.284;2023-03-25T00:42:39;98918.34;;;7.47;100.00
42633;BME280;28261;53.304;-6.284;2023-03-25T00:44:47;98919.28;;;7.45;100.00
42633;BME280;28261;53.304;-6.284;2023-03-25T00:46:51;98927.34;;;7.44;100.00
42633;BME280;28261;53.304;-6.284;2023-03-25T00:48:57;98925.91;;;7.40;100.00
42633;BME280;28261;53.304;-6.284;2023-03-25T00:51:00;98923.41;;;7.38;100.00
42633;BME280;28261;53.304;-6.284;2023-03-25T00:53:08;98930.59;;;7.36;100.00
42633;BME280;28261;53.304;-6.284;2023-03-25T00:55:12;98932.41;;;7.36;100.00
42633;BME280;28261;53.304;-6.284;2023-03-25T00:57:15;98935.88;;;7.36;100.00
42633;BME280;28261;53.304;-6.284;2023-03-25T00:59:19;98943.78;;;7.36;100.00
42633;BME280;28261;53.304;-6.284;2023-03-25T01:01:25;98954.19;;;7.38;100.00
42633;BME280;28261;53.304;-6.284;2023-03-25T01:03:31;98949.75;;;7.38;100.00
42633;BME280;28261;53.304;-6.284;2023-03-25T01:05:39;98953.09;;;7.40;100.00
42633;BME280;28261;53.304;-6.284;2023-03-25T01:07:43;98945.19;;;7.40;100.00
42633;BME280;28261;53.304;-6.284;2023-03-25T01:09:50;98955.03;;;7.38;100.00
42633;BME280;28261;53.304;-6.284;2023-03-25T01:11:54;98957.81;;;7.37;100.00
42633;BME280;28261;53.304;-6.284;2023-03-25T01:13:57;98960.53;;;7.35;100.00
42633;BME280;28261;53.304;-6.284;2023-03-25T01:16:05;98964.38;;;7.31;100.00
42633;BME280;28261;53.304;-6.284;2023-03-25T01:18:09;98978.56;;;7.30;100.00
42633;BME280;28261;53.304;-6.284;2023-03-25T01:20:13;98968.25;;;7.27;100.00
42633;BME280;28261;53.304;-6.284;2023-03-25T01:22:19;98955.19;;;7.25;100.00
42633;BME280;28261;53.304;-6.284;2023-03-25T01:24:22;98974.59;;;7.24;100.00
42633;BME280;28261;53.304;-6.284;2023-03-25T01:26:26;98964.19;;;7.23;100.00
42633;BME280;28261;53.304;-6.284;2023-03-25T01:28:29;98974.84;;;7.21;100.00
42633;BME280;28261;53.304;-6.284;2023-03-25T01:30:33;98978.56;;;7.19;100.00
42633;BME280;28261;53.304;-6.284;2023-03-25T01:32:37;98970.91;;;7.16;100.00
42633;BME280;28261;53.304;-6.284;2023-03-25T01:34:41;98982.53;;;7.13;100.00
42633;BME280;28261;53.304;-6.284;2023-03-25T01:36:44;98967.81;;;7.10;100.00
42633;BME280;28261;53.304;-6.284;2023-03-25T01:38:50;98982.19;;;7.06;100.00
42633;BME280;28261;53.304;-6.284;2023-03-25T01:40:54;98971.78;;;7.05;100.00
42633;BME280;28261;53.304;-6.284;2023-03-25T01:42:57;98983.41;;;7.02;100.00
42633;BME280;28261;53.304;-6.284;2023-03-25T01:45:28;98982.72;;;7.00;100.00
42633;BME280;28261;53.304;-6.284;2023-03-25T01:47:34;98993.50;;;6.97;100.00
42633;BME280;28261;53.304;-6.284;2023-03-25T01:49:39;98988.22;;;6.97;100.00
42633;BME280;28261;53.304;-6.284;2023-03-25T01:51:45;98994.56;;;6.94;100.00
42633;BME280;28261;53.304;-6.284;2023-03-25T01:53:52;98997.34;;;6.93;100.00
42633;BME280;28261;53.304;-6.284;2023-03-25T01:55:56;99001.63;;;6.94;100.00
42633;BME280;28261;53.304;-6.284;2023-03-25T01:58:06;99008.69;;;6.93;100.00
42633;BME280;28261;53.304;-6.284;2023-03-25T02:00:14;99002.59;;;6.93;100.00
42633;BME280;28261;53.304;-6.284;2023-03-25T02:02:18;99010.59;;;6.91;100.00
42633;BME280;28261;53.304;-6.284;2023-03-25T02:04:28;99008.09;;;6.90;100.00
42633;BME280;28261;53.304;-6.284;2023-03-25T02:06:40;99018.63;;;6.90;100.00
42633;BME280;28261;53.304;-6.284;2023-03-25T02:08:44;99008.22;;;6.88;100.00
42633;BME280;28261;53.304;-6.284;2023-03-25T02:10:51;99008.22;;;6.88;100.00
42633;BME280;28261;53.304;-6.284;2023-03-25T02:12:55;99022.22;;;6.89;100.00
42633;BME280;28261;53.304;-6.284;2023-03-25T02:15:00;99029.16;;;6.90;100.00
42633;BME280;28261;53.304;-6.284;2023-03-25T02:17:11;99031.69;;;6.91;100.00
42633;BME280;28261;53.304;-6.284;2023-03-25T02:19:34;99025.59;;;6.91;100.00
42633;BME280;28261;53.304;-6.284;2023-03-25T02:24:55;99046.66;;;6.91;100.00
42633;BME280;28261;53.304;-6.284;2023-03-25T02:27:20;99042.22;;;6.91;100.00
42633;BME280;28261;53.304;-6.284;2023-03-25T02:29:45;99051.94;;;6.91;100.00
42633;BME280;28261;53.304;-6.284;2023-03-25T02:32:11;99051.09;;;6.90;100.00
42633;BME280;28261;53.304;-6.284;2023-03-25T02:34:37;99060.78;;;6.90;100.00
42633;BME280;28261;53.304;-6.284;2023-03-25T02:39:26;99071.56;;;6.87;100.00
42633;BME280;28261;53.304;-6.284;2023-03-25T02:41:38;99080.41;;;6.86;100.00
42633;BME280;28261;53.304;-6.284;2023-03-25T02:43:50;99095.41;;;6.85;100.00
42633;BME280;28261;53.304;-6.284;2023-03-25T02:45:59;99090.25;;;6.84;100.00
42633;BME280;28261;53.304;-6.284;2023-03-25T02:48:07;99085.09;;;6.82;100.00
42633;BME280;28261;53.304;-6.284;2023-03-25T02:50:16;99093.00;;;6.82;100.00
42633;BME280;28261;53.304;-6.284;2023-03-25T02:52:24;99103.63;;;6.81;100.00
42633;BME280;28261;53.304;-6.284;2023-03-25T02:54:34;99108.06;;;6.80;100.00
42633;BME280;28261;53.304;-6.284;2023-03-25T02:56:41;99095.03;;;6.78;100.00
42633;BME280;28261;53.304;-6.284;2023-03-25T02:58:48;99115.16;;;6.80;100.00
42633;BME280;28261;53.304;-6.284;2023-03-25T03:00:56;99108.31;;;6.77;100.00
42633;BME280;28261;53.304;-6.284;2023-03-25T03:03:02;99124.94;;;6.77;100.00
42633;BME280;28261;53.304;-6.284;2023-03-25T03:05:20;99128.53;;;6.76;100.00
42633;BME280;28261;53.304;-6.284;2023-03-25T03:07:27;99126.88;;;6.75;100.00
42633;BME280;28261;53.304;-6.284;2023-03-25T03:09:38;99130.47;;;6.74;100.00
42633;BME280;28261;53.304;-6.284;2023-03-25T03:11:53;99136.78;;;6.72;100.00
42633;BME280;28261;53.304;-6.284;2023-03-25T03:14:17;99144.69;;;6.72;100.00
42633;BME280;28261;53.304;-6.284;2023-03-25T03:16:31;99152.72;;;6.70;100.00
42633;BME280;28261;53.304;-6.284;2023-03-25T03:18:42;99158.94;;;6.69;100.00
42633;BME280;28261;53.304;-6.284;2023-03-25T03:20:49;99162.50;;;6.68;100.00
42633;BME280;28261;53.304;-6.284;2023-03-25T03:23:03;99163.63;;;6.66;100.00
42633;BME280;28261;53.304;-6.284;2023-03-25T03:25:18;99158.44;;;6.64;100.00
42633;BME280;28261;53.304;-6.284;2023-03-25T03:27:26;99169.94;;;6.63;100.00
42633;BME280;28261;53.304;-6.284;2023-03-25T03:29:36;99171.84;;;6.61;100.00
42633;BME280;28261;53.304;-6.284;2023-03-25T03:31:44;99171.84;;;6.61;100.00
42633;BME280;28261;53.304;-6.284;2023-03-25T03:34:09;99166.81;;;6.58;100.00
42633;BME280;28261;53.304;-6.284;2023-03-25T03:36:17;99172.91;;;6.58;100.00
42633;BME280;28261;53.304;-6.284;2023-03-25T03:38:25;99182.63;;;6.58;100.00
42633;BME280;28261;53.304;-6.284;2023-03-25T03:40:32;99185.13;;;6.59;100.00
42633;BME280;28261;53.304;-6.284;2023-03-25T03:42:41;99192.19;;;6.59;100.00
42633;BME280;28261;53.304;-6.284;2023-03-25T03:44:50;99200.09;;;6.59;100.00
42633;BME280;28261;53.304;-6.284;2023-03-25T03:46:58;99204.50;;;6.58;100.00
42633;BME280;28261;53.304;-6.284;2023-03-25T03:49:06;99206.44;;;6.56;100.00
42633;BME280;28261;53.304;-6.284;2023-03-25T03:51:15;99212.53;;;6.57;100.00
42633;BME280;28261;53.304;-6.284;2023-03-25T03:53:23;99209.06;;;6.56;100.00
42633;BME280;28261;53.304;-6.284;2023-03-25T03:55:33;99230.13;;;6.56;100.00
42633;BME280;28261;53.304;-6.284;2023-03-25T03:57:41;99224.00;;;6.56;100.00
42633;BME280;28261;53.304;-6.284;2023-03-25T03:59:52;99218.72;;;6.56;100.00
42633;BME280;28261;53.304;-6.284;2023-03-25T04:02:01;99239.09;;;6.54;100.00
42633;BME280;28261;53.304;-6.284;2023-03-25T04:04:08;99239.09;;;6.54;100.00
42633;BME280;28261;53.304;-6.284;2023-03-25T04:06:18;99247.81;;;6.54;100.00
42633;BME280;28261;53.304;-6.284;2023-03-25T04:08:26;99239.09;;;6.54;100.00
42633;BME280;28261;53.304;-6.284;2023-03-25T04:10:38;99247.09;;;6.52;100.00
42633;BME280;28261;53.304;-6.284;2023-03-25T04:12:44;99247.94;;;6.53;100.00
42633;BME280;28261;53.304;-6.284;2023-03-25T04:14:48;99250.69;;;6.51;100.00
42633;BME280;28261;53.304;-6.284;2023-03-25T04:16:53;99245.41;;;6.51;100.00
42633;BME280;28261;53.304;-6.284;2023-03-25T04:18:57;99255.13;;;6.51;100.00
42633;BME280;28261;53.304;-6.284;2023-03-25T04:21:00;99261.22;;;6.51;100.00
42633;BME280;28261;53.304;-6.284;2023-03-25T04:23:04;99263.97;;;6.50;100.00
42633;BME280;28261;53.304;-6.284;2023-03-25T04:25:11;99268.38;;;6.49;100.00
42633;BME280;28261;53.304;-6.284;2023-03-25T04:27:17;99265.84;;;6.48;100.00
42633;BME280;28261;53.304;-6.284;2023-03-25T04:29:24;99272.09;;;6.47;100.00
42633;BME280;28261;53.304;-6.284;2023-03-25T04:31:28;99268.59;;;6.46;100.00
42633;BME280;28261;53.304;-6.284;2023-03-25T04:33:33;99273.88;;;6.46;100.00
42633;BME280;28261;53.304;-6.284;2023-03-25T04:35:37;99282.72;;;6.45;100.00
42633;BME280;28261;53.304;-6.284;2023-03-25T04:37:41;99283.69;;;6.44;100.00
42633;BME280;28261;53.304;-6.284;2023-03-25T04:39:46;99293.47;;;6.42;100.00
42633;BME280;28261;53.304;-6.284;2023-03-25T04:41:51;99290.84;;;6.42;100.00
42633;BME280;28261;53.304;-6.284;2023-03-25T04:43:57;99298.84;;;6.40;100.00
42633;BME280;28261;53.304;-6.284;2023-03-25T04:46:00;99297.16;;;6.39;100.00
42633;BME280;28261;53.304;-6.284;2023-03-25T04:48:03;99298.97;;;6.39;100.00
42633;BME280;28261;53.304;-6.284;2023-03-25T04:50:11;99308.56;;;6.40;100.00
42633;BME280;28261;53.304;-6.284;2023-03-25T04:52:18;99318.97;;;6.41;100.00
42633;BME280;28261;53.304;-6.284;2023-03-25T04:54:22;99320.66;;;6.42;100.00
42633;BME280;28261;53.304;-6.284;2023-03-25T04:56:25;99330.22;;;6.43;100.00
42633;BME280;28261;53.304;-6.284;2023-03-25T04:58:29;99325.69;;;6.46;100.00
42633;BME280;28261;53.304;-6.284;2023-03-25T05:00:34;99329.03;;;6.48;100.00
42633;BME280;28261;53.304;-6.284;2023-03-25T05:02:41;99337.69;;;6.50;100.00
42633;BME280;28261;53.304;-6.284;2023-03-25T05:04:46;99326.19;;;6.51;100.00
42633;BME280;28261;53.304;-6.284;2023-03-25T05:06:50;99335.63;;;6.53;100.00
42633;BME280;28261;53.304;-6.284;2023-03-25T05:08:54;99331.22;;;6.54;100.00
42633;BME280;28261;53.304;-6.284;2023-03-25T05:10:57;99338.19;;;6.55;100.00
42633;BME280;28261;53.304;-6.284;2023-03-25T05:13:02;99338.91;;;6.57;100.00
42633;BME280;28261;53.304;-6.284;2023-03-25T05:15:07;99339.66;;;6.59;100.00
42633;BME280;28261;53.304;-6.284;2023-03-25T05:17:12;99343.94;;;6.60;100.00
42633;BME280;28261;53.304;-6.284;2023-03-25T05:19:16;99350.91;;;6.61;100.00
42633;BME280;28261;53.304;-6.284;2023-03-25T05:21:21;99347.31;;;6.62;100.00
42633;BME280;28261;53.304;-6.284;2023-03-25T05:23:24;99349.00;;;6.63;100.00
42633;BME280;28261;53.304;-6.284;2023-03-25T05:25:29;99346.38;;;6.63;100.00
42633;BME280;28261;53.304;-6.284;2023-03-25T05:27:38;99350.66;;;6.64;100.00
42633;BME280;28261;53.304;-6.284;2023-03-25T05:29:41;99348.78;;;6.66;100.00
42633;BME280;28261;53.304;-6.284;2023-03-25T05:31:45;99355.72;;;6.67;100.00
42633;BME280;28261;53.304;-6.284;2023-03-25T05:33:50;99377.50;;;6.69;100.00
42633;BME280;28261;53.304;-6.284;2023-03-25T05:35:55;99368.66;;;6.70;100.00
42633;BME280;28261;53.304;-6.284;2023-03-25T05:38:00;99377.41;;;6.71;100.00
42633;BME280;28261;53.304;-6.284;2023-03-25T05:40:04;99380.78;;;6.73;100.00
42633;BME280;28261;53.304;-6.284;2023-03-25T05:42:16;99386.88;;;6.73;100.00
42633;BME280;28261;53.304;-6.284;2023-03-25T05:44:23;99387.72;;;6.74;100.00
42633;BME280;28261;53.304;-6.284;2023-03-25T05:46:27;99384.22;;;6.73;100.00
42633;BME280;28261;53.304;-6.284;2023-03-25T05:48:31;99398.25;;;6.74;100.00
42633;BME280;28261;53.304;-6.284;2023-03-25T05:50:37;99399.09;;;6.74;100.00
42633;BME280;28261;53.304;-6.284;2023-03-25T05:52:43;99401.72;;;6.74;100.00
42633;BME280;28261;53.304;-6.284;2023-03-25T05:54:50;99406.25;;;6.72;100.00
42633;BME280;28261;53.304;-6.284;2023-03-25T05:56:53;99407.94;;;6.73;100.00
42633;BME280;28261;53.304;-6.284;2023-03-25T05:58:57;99404.59;;;6.71;100.00
42633;BME280;28261;53.304;-6.284;2023-03-25T06:01:00;99417.75;;;6.71;100.00
42633;BME280;28261;53.304;-6.284;2023-03-25T06:03:05;99416.78;;;6.72;100.00
42633;BME280;28261;53.304;-6.284;2023-03-25T06:05:10;99424.69;;;6.72;100.00
42633;BME280;28261;53.304;-6.284;2023-03-25T06:07:16;99427.22;;;6.74;100.00
42633;BME280;28261;53.304;-6.284;2023-03-25T06:09:21;99423.75;;;6.73;100.00
42633;BME280;28261;53.304;-6.284;2023-03-25T06:11:24;99424.50;;;6.75;100.00
42633;BME280;28261;53.304;-6.284;2023-03-25T06:13:28;99427.13;;;6.75;100.00
42633;BME280;28261;53.304;-6.284;2023-03-25T06:15:34;99427.94;;;6.76;100.00
42633;BME280;28261;53.304;-6.284;2023-03-25T06:17:41;99434.03;;;6.76;100.00
42633;BME280;28261;53.304;-6.284;2023-03-25T06:19:47;99436.59;;;6.78;100.00
42633;BME280;28261;53.304;-6.284;2023-03-25T06:21:50;99444.28;;;6.81;100.00
42633;BME280;28261;53.304;-6.284;2023-03-25T06:23:56;99440.56;;;6.84;100.00
42633;BME280;28261;53.304;-6.284;2023-03-25T06:26:00;99444.78;;;6.86;100.00
42633;BME280;28261;53.304;-6.284;2023-03-25T06:28:05;99448.03;;;6.90;100.00
42633;BME280;28261;53.304;-6.284;2023-03-25T06:30:10;99446.03;;;6.93;100.00
42633;BME280;28261;53.304;-6.284;2023-03-25T06:32:14;99455.50;;;6.96;100.00
42633;BME280;28261;53.304;-6.284;2023-03-25T06:34:17;99459.72;;;6.99;100.00
42633;BME280;28261;53.304;-6.284;2023-03-25T06:36:24;99460.41;;;7.01;100.00
42633;BME280;28261;53.304;-6.284;2023-03-25T06:38:27;99458.53;;;7.03;100.00
42633;BME280;28261;53.304;-6.284;2023-03-25T06:40:43;99460.19;;;7.04;100.00
42633;BME280;28261;53.304;-6.284;2023-03-25T06:42:48;99467.78;;;7.08;100.00
42633;BME280;28261;53.304;-6.284;2023-03-25T06:45:10;99484.94;;;7.14;100.00
42633;BME280;28261;53.304;-6.284;2023-03-25T06:47:20;99479.13;;;7.22;100.00
42633;BME280;28261;53.304;-6.284;2023-03-25T06:49:24;99482.03;;;7.30;100.00
42633;BME280;28261;53.304;-6.284;2023-03-25T06:51:29;99491.56;;;7.44;100.00
42633;BME280;28261;53.304;-6.284;2023-03-25T06:53:32;99505.13;;;7.51;100.00
42633;BME280;28261;53.304;-6.284;2023-03-25T06:55:36;99497.22;;;7.51;100.00
42633;BME280;28261;53.304;-6.284;2023-03-25T06:57:42;99508.84;;;7.48;100.00
42633;BME280;28261;53.304;-6.284;2023-03-25T06:59:45;99514.00;;;7.50;100.00
42633;BME280;28261;53.304;-6.284;2023-03-25T07:01:50;99518.44;;;7.49;100.00
42633;BME280;28261;53.304;-6.284;2023-03-25T07:03:54;99521.91;;;7.50;100.00
42633;BME280;28261;53.304;-6.284;2023-03-25T07:05:57;99530.53;;;7.52;100.00
42633;BME280;28261;53.304;-6.284;2023-03-25T07:08:00;99535.09;;;7.50;100.00
42633;BME280;28261;53.304;-6.284;2023-03-25T07:10:04;99534.25;;;7.49;100.00
42633;BME280;28261;53.304;-6.284;2023-03-25T07:12:08;99535.78;;;7.52;100.00
42633;BME280;28261;53.304;-6.284;2023-03-25T07:14:13;99552.47;;;7.52;100.00
42633;BME280;28261;53.304;-6.284;2023-03-25T07:16:16;99552.38;;;7.54;100.00
42633;BME280;28261;53.304;-6.284;2023-03-25T07:18:20;99551.41;;;7.55;100.00
42633;BME280;28261;53.304;-6.284;2023-03-25T07:20:23;99551.19;;;7.58;100.00
42633;BME280;28261;53.304;-6.284;2023-03-25T07:22:26;99551.81;;;7.61;100.00
42633;BME280;28261;53.304;-6.284;2023-03-25T07:24:29;99550.63;;;7.66;100.00
42633;BME280;28261;53.304;-6.284;2023-03-25T07:26:33;99553.03;;;7.69;100.00
42633;BME280;28261;53.304;-6.284;2023-03-25T07:28:36;99550.50;;;7.67;100.00
42633;BME280;28261;53.304;-6.284;2023-03-25T07:30:41;99557.69;;;7.65;100.00
42633;BME280;28261;53.304;-6.284;2023-03-25T07:32:44;99554.09;;;7.66;100.00
42633;BME280;28261;53.304;-6.284;2023-03-25T07:34:48;99567.28;;;7.66;100.00
42633;BME280;28261;53.304;-6.284;2023-03-25T07:36:51;99563.81;;;7.66;100.00
42633;BME280;28261;53.304;-6.284;2023-03-25T07:38:55;99564.66;;;7.66;100.00
42633;BME280;28261;53.304;-6.284;2023-03-25T07:40:58;99569.50;;;7.72;100.00
42633;BME280;28261;53.304;-6.284;2023-03-25T07:43:01;99576.00;;;7.79;100.00
42633;BME280;28261;53.304;-6.284;2023-03-25T07:45:28;99574.56;;;7.87;100.00
42633;BME280;28261;53.304;-6.284;2023-03-25T07:47:45;99580.47;;;7.90;100.00
42633;BME280;28261;53.304;-6.284;2023-03-25T07:49:51;99582.63;;;7.96;100.00
42633;BME280;28261;53.304;-6.284;2023-03-25T07:51:54;99591.19;;;8.00;100.00
42633;BME280;28261;53.304;-6.284;2023-03-25T07:53:57;99585.78;;;8.02;100.00
42633;BME280;28261;53.304;-6.284;2023-03-25T07:56:07;99591.81;;;8.04;100.00
42633;BME280;28261;53.304;-6.284;2023-03-25T07:58:11;99597.69;;;8.07;100.00
42633;BME280;28261;53.304;-6.284;2023-03-25T08:00:15;99605.28;;;8.12;100.00
42633;BME280;28261;53.304;-6.284;2023-03-25T08:02:19;99605.16;;;8.13;100.00
42633;BME280;28261;53.304;-6.284;2023-03-25T08:04:24;99600.69;;;8.14;100.00
42633;BME280;28261;53.304;-6.284;2023-03-25T08:06:27;99614.72;;;8.14;100.00
42633;BME280;28261;53.304;-6.284;2023-03-25T08:08:31;99603.47;;;8.12;100.00
42633;BME280;28261;53.304;-6.284;2023-03-25T08:10:35;99606.81;;;8.14;100.00
42633;BME280;28261;53.304;-6.284;2023-03-25T08:12:38;99612.34;;;8.23;100.00
42633;BME280;28261;53.304;-6.284;2023-03-25T08:14:42;99616.50;;;8.38;100.00
42633;BME280;28261;53.304;-6.284;2023-03-25T08:16:46;99612.72;;;8.54;100.00
42633;BME280;28261;53.304;-6.284;2023-03-25T08:18:50;99616.34;;;8.64;100.00
42633;BME280;28261;53.304;-6.284;2023-03-25T08:20:56;99612.97;;;8.73;100.00
42633;BME280;28261;53.304;-6.284;2023-03-25T08:22:59;99621.16;;;8.81;99.55
42633;BME280;28261;53.304;-6.284;2023-03-25T08:25:05;99627.41;;;8.92;99.58
42633;BME280;28261;53.304;-6.284;2023-03-25T08:27:09;99625.84;;;9.01;97.58
42633;BME280;28261;53.304;-6.284;2023-03-25T08:29:17;99635.34;;;9.03;97.46
42633;BME280;28261;53.304;-6.284;2023-03-25T08:31:21;99638.22;;;9.11;96.08
42633;BME280;28261;53.304;-6.284;2023-03-25T08:33:25;99649.03;;;9.20;95.92
42633;BME280;28261;53.304;-6.284;2023-03-25T08:35:37;99647.84;;;9.24;95.04
42633;BME280;28261;53.304;-6.284;2023-03-25T08:37:43;99645.94;;;9.26;93.99
42633;BME280;28261;53.304;-6.284;2023-03-25T08:39:47;99652.03;;;9.26;94.12
42633;BME280;28261;53.304;-6.284;2023-03-25T08:41:51;99664.06;;;9.30;94.51
42633;BME280;28261;53.304;-6.284;2023-03-25T08:43:55;99658.88;;;9.40;94.01
42633;BME280;28261;53.304;-6.284;2023-03-25T08:45:58;99665.59;;;9.44;93.23
42633;BME280;28261;53.304;-6.284;2023-03-25T08:48:02;99670.19;;;9.42;93.01
42633;BME280;28261;53.304;-6.284;2023-03-25T08:50:07;99681.47;;;9.44;93.45
42633;BME280;28261;53.304;-6.284;2023-03-25T08:52:11;99679.31;;;9.49;93.25
42633;BME280;28261;53.304;-6.284;2023-03-25T08:54:16;99681.59;;;9.65;92.81
42633;BME280;28261;53.304;-6.284;2023-03-25T08:56:19;99685.28;;;9.74;91.21
42633;BME280;28261;53.304;-6.284;2023-03-25T08:58:24;99693.25;;;9.74;90.64
42633;BME280;28261;53.304;-6.284;2023-03-25T09:00:28;99686.03;;;9.76;90.72
42633;BME280;28261;53.304;-6.284;2023-03-25T09:02:32;99694.91;;;9.87;90.61
42633;BME280;28261;53.304;-6.284;2023-03-25T09:04:36;99699.44;;;9.96;89.58
42633;BME280;28261;53.304;-6.284;2023-03-25T09:06:39;99702.44;;;10.03;88.80
42633;BME280;28261;53.304;-6.284;2023-03-25T09:09:03;99705.56;;;10.08;88.05
42633;BME280;28261;53.304;-6.284;2023-03-25T09:11:09;99705.69;;;10.06;86.85
42633;BME280;28261;53.304;-6.284;2023-03-25T09:13:13;99718.25;;;9.93;86.76
42633;BME280;28261;53.304;-6.284;2023-03-25T09:15:17;99715.38;;;9.85;87.21
42633;BME280;28261;53.304;-6.284;2023-03-25T09:17:22;99715.00;;;9.78;87.48
42633;BME280;28261;53.304;-6.284;2023-03-25T09:19:26;99719.47;;;9.77;87.99
42633;BME280;28261;53.304;-6.284;2023-03-25T09:21:29;99732.81;;;9.76;87.77
42633;BME280;28261;53.304;-6.284;2023-03-25T09:23:34;99724.88;;;9.64;87.46
42633;BME280;28261;53.304;-6.284;2023-03-25T09:25:38;99733.94;;;9.51;87.98
42633;BME280;28261;53.304;-6.284;2023-03-25T09:27:43;99725.75;;;9.42;88.01
42633;BME280;28261;53.304;-6.284;2023-03-25T09:29:46;99735.34;;;9.32;88.03
42633;BME280;28261;53.304;-6.284;2023-03-25T09:31:50;99740.28;;;9.25;89.05
42633;BME280;28261;53.304;-6.284;2023-03-25T09:33:56;99737.53;;;9.27;89.12
42633;BME280;28261;53.304;-6.284;2023-03-25T09:36:00;99741.00;;;9.39;89.80
42633;BME280;28261;53.304;-6.284;2023-03-25T09:38:04;99735.63;;;9.52;89.01
42633;BME280;28261;53.304;-6.284;2023-03-25T09:40:10;99739.69;;;9.56;87.79
42633;BME280;28261;53.304;-6.284;2023-03-25T09:42:29;99737.63;;;9.59;88.04
42633;BME280;28261;53.304;-6.284;2023-03-25T09:44:45;99741.16;;;9.60;86.65
42633;BME280;28261;53.304;-6.284;2023-03-25T09:46:54;99738.75;;;9.57;86.47
42633;BME280;28261;53.304;-6.284;2023-03-25T09:48:59;99747.63;;;9.56;86.53
42633;BME280;28261;53.304;-6.284;2023-03-25T09:51:05;99737.16;;;9.65;86.98
42633;BME280;28261;53.304;-6.284;2023-03-25T09:53:21;99743.38;;;9.98;86.97
42633;BME280;28261;53.304;-6.284;2023-03-25T09:55:28;99745.59;;;10.26;85.05
42633;BME280;28261;53.304;-6.284;2023-03-25T09:57:39;99750.53;;;10.42;83.39
42633;BME280;28261;53.304;-6.284;2023-03-25T09:59:48;99757.06;;;10.59;82.05
42633;BME280;28261;53.304;-6.284;2023-03-25T10:01:58;99757.47;;;10.75;80.69
42633;BME280;28261;53.304;-6.284;2023-03-25T10:06:45;99762.50;;;10.78;79.00
42633;BME280;28261;53.304;-6.284;2023-03-25T10:09:11;99754.31;;;10.81;78.86
42633;BME280;28261;53.304;-6.284;2023-03-25T10:11:25;99750.97;;;11.00;78.25
42633;BME280;28261;53.304;-6.284;2023-03-25T10:13:41;99751.91;;;11.21;76.58
42633;BME280;28261;53.304;-6.284;2023-03-25T10:15:55;99755.19;;;11.34;74.71
42633;BME280;28261;53.304;-6.284;2023-03-25T10:18:18;99760.63;;;11.32;72.48
42633;BME280;28261;53.304;-6.284;2023-03-25T10:20:33;99765.34;;;11.29;71.79
42633;BME280;28261;53.304;-6.284;2023-03-25T10:22:49;99770.44;;;11.32;71.95
42633;BME280;28261;53.304;-6.284;2023-03-25T10:24:59;99777.06;;;11.47;72.00
42633;BME280;28261;53.304;-6.284;2023-03-25T10:27:12;99781.63;;;11.66;71.13
42633;BME280;28261;53.304;-6.284;2023-03-25T10:29:20;99774.66;;;11.75;69.54
42633;BME280;28261;53.304;-6.284;2023-03-25T10:31:30;99774.97;;;11.82;69.26
42633;BME280;28261;53.304;-6.284;2023-03-25T10:33:38;99784.41;;;11.96;69.00
42633;BME280;28261;53.304;-6.284;2023-03-25T10:35:45;99784.72;;;12.12;68.47
42633;BME280;28261;53.304;-6.284;2023-03-25T10:37:53;99788.97;;;12.25;67.11
42633;BME280;28261;53.304;-6.284;2023-03-25T10:40:09;99791.78;;;12.33;65.76
42633;BME280;28261;53.304;-6.284;2023-03-25T10:42:22;99794.53;;;12.22;63.75
42633;BME280;28261;53.304;-6.284;2023-03-25T10:44:27;99800.41;;;12.15;64.72
42633;BME280;28261;53.304;-6.284;2023-03-25T10:46:37;99805.16;;;12.12;64.92
42633;BME280;28261;53.304;-6.284;2023-03-25T10:48:49;99808.31;;;11.96;65.65
42633;BME280;28261;53.304;-6.284;2023-03-25T10:50:59;99815.91;;;11.79;66.03
42633;BME280;28261;53.304;-6.284;2023-03-25T10:53:05;99808.16;;;11.66;66.61
42633;BME280;28261;53.304;-6.284;2023-03-25T10:55:20;99811.50;;;11.68;67.89
42633;BME280;28261;53.304;-6.284;2023-03-25T10:57:27;99805.88;;;11.93;67.33
42633;BME280;28261;53.304;-6.284;2023-03-25T10:59:35;99812.28;;;12.11;66.18
42633;BME280;28261;53.304;-6.284;2023-03-25T11:01:44;99810.47;;;12.12;65.11
42633;BME280;28261;53.304;-6.284;2023-03-25T11:03:50;99803.16;;;12.04;64.87
42633;BME280;28261;53.304;-6.284;2023-03-25T11:05:55;99801.69;;;11.90;64.48
42633;BME280;28261;53.304;-6.284;2023-03-25T11:08:00;99810.03;;;11.76;65.54
42633;BME280;28261;53.304;-6.284;2023-03-25T11:10:25;99806.09;;;11.70;66.17
42633;BME280;28261;53.304;-6.284;2023-03-25T11:12:31;99808.31;;;11.65;67.12